createdAt,value
2022-12-14T00:01:49.574Z,49.18
2022-12-14T00:04:16.207Z,49.19
2022-12-14T00:06:42.558Z,48.36
2022-12-14T00:09:08.968Z,48.90
2022-12-14T00:11:35.327Z,50.14
2022-12-14T00:14:01.730Z,49.26
2022-12-14T00:16:28.107Z,49.21
2022-12-14T00:18:54.483Z,48.21
2022-12-14T00:21:20.825Z,49.30
2022-12-14T00:23:47.193Z,46.92
2022-12-14T00:26:13.529Z,48.83
2022-12-14T00:28:39.911Z,49.01
2022-12-14T00:31:06.311Z,48.71
2022-12-14T00:33:32.736Z,49.00
2022-12-14T00:35:59.072Z,48.90
2022-12-14T00:38:25.649Z,48.36
2022-12-14T00:40:52.306Z,49.03
2022-12-14T00:43:18.664Z,47.28
2022-12-14T00:45:45.064Z,48.45
2022-12-14T00:48:11.448Z,46.71
2022-12-14T00:50:37.794Z,47.50
2022-12-14T00:53:04.186Z,47.74
2022-12-14T00:55:30.540Z,49.28
2022-12-14T00:57:56.922Z,51.04
2022-12-14T01:00:23.307Z,50.73
2022-12-14T01:02:49.652Z,50.97
2022-12-14T01:05:16.052Z,48.30
2022-12-14T01:07:42.493Z,49.20
2022-12-14T01:10:08.857Z,49.74
2022-12-14T01:12:35.196Z,50.22
2022-12-14T01:15:01.580Z,48.33
2022-12-14T01:17:27.918Z,49.14
2022-12-14T01:19:54.267Z,51.46
2022-12-14T01:22:20.631Z,51.17
2022-12-14T01:24:47.029Z,49.30
2022-12-14T01:27:13.410Z,48.94
2022-12-14T01:29:39.766Z,48.42
2022-12-14T01:32:06.151Z,49.62
2022-12-14T01:34:32.509Z,49.06
2022-12-14T01:36:58.892Z,49.71
2022-12-14T01:39:25.239Z,50.21
2022-12-14T01:41:51.593Z,49.14
2022-12-14T01:44:18.017Z,51.22
2022-12-14T01:46:44.426Z,52.39
2022-12-14T01:49:10.832Z,52.95
2022-12-14T01:51:37.195Z,51.13
2022-12-14T01:54:03.539Z,50.85
2022-12-14T01:56:29.896Z,50.23
2022-12-14T01:58:56.280Z,49.22
2022-12-14T02:01:22.769Z,50.27
2022-12-14T02:03:49.225Z,50.72
2022-12-14T02:06:15.632Z,50.43
2022-12-14T02:08:41.985Z,50.82
2022-12-14T02:11:08.318Z,51.17
2022-12-14T02:13:34.679Z,50.15
2022-12-14T02:16:01.116Z,49.75
2022-12-14T02:18:27.517Z,49.25
2022-12-14T02:20:53.887Z,48.46
2022-12-14T02:23:20.194Z,49.50
2022-12-14T02:25:49.353Z,48.62
2022-12-14T02:28:16.171Z,49.15
2022-12-14T02:30:42.525Z,50.24
2022-12-14T02:33:08.846Z,50.34
2022-12-14T02:35:35.296Z,50.03
2022-12-14T02:38:01.620Z,50.20
2022-12-14T02:40:27.948Z,50.33
2022-12-14T02:42:54.310Z,49.82
2022-12-14T02:45:20.639Z,49.82
2022-12-14T02:47:46.957Z,48.50
2022-12-14T02:50:13.274Z,49.09
2022-12-14T02:52:39.566Z,48.97
2022-12-14T02:55:05.882Z,50.28
2022-12-14T02:57:32.216Z,51.91
2022-12-14T02:59:58.516Z,53.43
2022-12-14T03:02:24.926Z,52.95
2022-12-14T03:04:51.574Z,52.66
2022-12-14T03:07:17.926Z,52.35
2022-12-14T03:09:44.256Z,51.76
2022-12-14T03:12:10.553Z,51.06
2022-12-14T03:14:36.846Z,50.40
2022-12-14T03:17:03.157Z,52.39
2022-12-14T03:19:29.486Z,49.79
2022-12-14T03:21:55.799Z,51.10
2022-12-14T03:24:22.094Z,51.84
2022-12-14T03:26:48.419Z,53.01
2022-12-14T03:29:14.729Z,52.20
2022-12-14T03:31:41.076Z,51.94
2022-12-14T03:34:13.061Z,51.69
2022-12-14T03:36:39.903Z,51.18
2022-12-14T03:39:06.234Z,52.93
2022-12-14T03:41:32.550Z,53.87
2022-12-14T03:43:58.841Z,54.07
2022-12-14T03:46:25.126Z,54.16
2022-12-14T03:48:51.444Z,55.60
2022-12-14T03:51:17.746Z,56.30
2022-12-14T03:53:44.064Z,55.17
2022-12-14T03:56:10.417Z,55.97
2022-12-14T03:58:36.732Z,55.52
2022-12-14T04:01:03.062Z,56.16
2022-12-14T04:03:29.667Z,55.99
2022-12-14T04:05:56.159Z,56.53
2022-12-14T04:08:22.476Z,55.44
2022-12-14T04:10:48.852Z,54.76
2022-12-14T04:13:15.141Z,54.30
2022-12-14T04:15:41.437Z,53.83
2022-12-14T04:18:07.800Z,54.01
2022-12-14T04:20:34.098Z,54.18
2022-12-14T04:23:00.414Z,54.96
2022-12-14T04:25:26.740Z,54.98
2022-12-14T04:27:53.054Z,54.08
2022-12-14T04:30:19.380Z,53.45
2022-12-14T04:32:45.751Z,53.06
2022-12-14T04:35:12.087Z,51.40
2022-12-14T04:37:38.392Z,51.24
2022-12-14T04:40:04.711Z,51.47
2022-12-14T04:42:31.024Z,51.24
2022-12-14T04:44:57.338Z,50.17
2022-12-14T04:47:23.668Z,50.35
2022-12-14T04:49:49.974Z,50.92
2022-12-14T04:52:16.274Z,49.14
2022-12-14T04:54:42.683Z,49.41
2022-12-14T04:57:09.022Z,50.13
2022-12-14T04:59:35.383Z,50.05
2022-12-14T05:02:01.846Z,50.64
2022-12-14T05:04:28.265Z,50.22
2022-12-14T05:06:54.584Z,50.61
2022-12-14T05:09:20.886Z,48.69
2022-12-14T05:11:53.694Z,49.82
2022-12-14T05:14:20.803Z,48.68
2022-12-14T05:16:49.072Z,48.35
2022-12-14T05:19:15.801Z,47.46
2022-12-14T05:21:42.124Z,46.53
2022-12-14T05:24:08.422Z,50.16
2022-12-14T05:26:34.718Z,52.36
2022-12-14T05:29:01.034Z,52.34
2022-12-14T05:31:27.331Z,52.13
2022-12-14T05:33:53.619Z,52.15
2022-12-14T05:36:19.944Z,52.14
2022-12-14T05:38:46.452Z,51.04
2022-12-14T05:41:12.769Z,52.11
2022-12-14T05:43:39.087Z,53.02
2022-12-14T05:46:05.460Z,53.79
2022-12-14T05:48:31.790Z,54.29
2022-12-14T05:50:58.171Z,54.39
2022-12-14T05:53:24.819Z,57.93
2022-12-14T05:55:51.227Z,57.56
2022-12-14T05:58:17.617Z,54.47
2022-12-14T06:00:43.917Z,52.39
2022-12-14T06:03:10.293Z,52.85
2022-12-14T06:05:36.645Z,53.12
2022-12-14T06:08:02.939Z,50.71
2022-12-14T06:10:29.238Z,52.18
2022-12-14T06:12:55.575Z,51.55
2022-12-14T06:15:21.868Z,52.91
2022-12-14T06:17:48.175Z,52.15
2022-12-14T06:20:14.515Z,52.97
2022-12-14T06:22:47.214Z,52.51
2022-12-14T06:25:13.968Z,51.60
2022-12-14T06:27:40.363Z,51.32
2022-12-14T06:30:06.660Z,51.32
2022-12-14T06:32:32.964Z,53.71
2022-12-14T06:34:59.276Z,52.26
2022-12-14T06:37:25.572Z,52.04
2022-12-14T06:39:54.440Z,52.30
2022-12-14T06:42:21.047Z,52.57
2022-12-14T06:44:47.357Z,52.93
2022-12-14T06:47:13.696Z,51.99
2022-12-14T06:49:40.052Z,50.58
2022-12-14T06:52:06.385Z,51.45
2022-12-14T06:54:32.687Z,51.19
2022-12-14T06:56:59.049Z,50.72
2022-12-14T06:59:25.344Z,52.67
2022-12-14T07:01:51.714Z,52.58
2022-12-14T07:04:18.138Z,53.82
2022-12-14T07:06:44.438Z,52.47
2022-12-14T07:09:10.731Z,52.67
2022-12-14T07:11:37.040Z,52.22
2022-12-14T07:14:03.355Z,52.06
2022-12-14T07:16:29.651Z,53.31
2022-12-14T07:18:55.989Z,52.84
2022-12-14T07:21:22.279Z,51.87
2022-12-14T07:23:48.579Z,51.69
2022-12-14T07:26:14.934Z,55.39
2022-12-14T07:29:04.026Z,53.83
2022-12-14T07:31:28.711Z,54.75
2022-12-14T07:33:55.050Z,53.57
2022-12-14T07:36:21.346Z,52.74
2022-12-14T07:38:47.672Z,53.44
2022-12-14T07:41:17.723Z,54.24
2022-12-14T07:43:49.807Z,53.95
2022-12-14T07:46:16.681Z,53.57
2022-12-14T07:48:43.021Z,55.35
2022-12-14T07:51:09.402Z,55.16
2022-12-14T07:53:35.723Z,54.31
2022-12-14T07:56:02.187Z,53.67
2022-12-14T07:58:28.536Z,54.12
2022-12-14T08:00:54.856Z,55.70
2022-12-14T08:03:21.159Z,55.18
2022-12-14T08:05:47.493Z,54.65
2022-12-14T08:08:13.796Z,52.60
2022-12-14T08:10:40.622Z,54.81
2022-12-14T08:13:07.275Z,52.55
2022-12-14T08:15:35.149Z,52.34
2022-12-14T08:18:01.479Z,52.59
2022-12-14T08:20:27.804Z,53.08
2022-12-14T08:22:54.111Z,53.11
2022-12-14T08:25:20.437Z,51.67
2022-12-14T08:27:46.830Z,52.15
2022-12-14T08:30:13.137Z,51.97
2022-12-14T08:32:39.434Z,54.51
2022-12-14T08:35:05.792Z,52.91
2022-12-14T08:37:32.104Z,51.76
2022-12-14T08:39:58.404Z,53.11
2022-12-14T08:42:25.194Z,51.62
2022-12-14T08:44:51.558Z,49.93
2022-12-14T08:47:17.876Z,50.24
2022-12-14T08:49:44.234Z,50.36
2022-12-14T08:52:10.590Z,48.83
2022-12-14T08:54:37.137Z,47.94
2022-12-14T08:57:03.537Z,48.54
2022-12-14T08:59:59.366Z,47.13
2022-12-14T09:02:18.799Z,45.52
2022-12-14T09:04:45.288Z,44.65
2022-12-14T09:07:11.652Z,44.28
2022-12-14T09:09:38.102Z,44.58
2022-12-14T09:12:04.515Z,44.42
2022-12-14T09:17:25.185Z,42.47
2022-12-14T09:22:34.202Z,38.18
2022-12-14T11:48:24.549Z,14.72
2022-12-14T11:53:37.259Z,11.17
2022-12-14T11:56:03.940Z,8.36
2022-12-14T11:58:34.280Z,6.18
2022-12-14T12:01:00.937Z,4.52
2022-12-14T12:03:27.437Z,4.40
2022-12-14T12:05:57.294Z,4.62
2022-12-14T12:08:23.713Z,4.37
2022-12-14T12:10:50.750Z,4.53
2022-12-14T12:13:17.239Z,4.37
2022-12-14T12:15:49.965Z,3.73
2022-12-14T12:18:16.600Z,3.26
2022-12-14T12:20:42.912Z,2.73
2022-12-14T12:23:09.287Z,2.30
2022-12-14T12:25:37.621Z,2.25
2022-12-14T12:28:04.211Z,2.12
2022-12-14T12:30:30.535Z,2.30
2022-12-14T12:32:56.845Z,2.27
2022-12-14T12:38:13.709Z,2.37
2022-12-14T12:40:39.994Z,2.64
2022-12-14T12:43:06.295Z,3.25
2022-12-14T12:45:32.669Z,3.80
2022-12-14T12:47:59.249Z,4.13
2022-12-14T12:50:25.578Z,5.21
2022-12-14T12:52:51.970Z,6.22
2022-12-14T12:55:18.270Z,6.60
2022-12-14T12:57:44.553Z,6.99
2022-12-14T13:00:10.936Z,7.64
2022-12-14T13:02:40.644Z,7.31
2022-12-14T13:05:29.116Z,7.40
2022-12-14T13:07:53.323Z,7.45
2022-12-14T13:10:19.630Z,6.86
2022-12-14T13:12:47.914Z,7.29
2022-12-14T13:15:14.437Z,7.57
2022-12-14T13:17:41.817Z,7.90
2022-12-14T13:20:08.420Z,6.80
2022-12-14T13:22:34.796Z,6.52
2022-12-14T13:25:01.128Z,7.40
2022-12-14T13:27:27.426Z,7.63
2022-12-14T13:29:53.741Z,7.52
2022-12-14T13:35:06.105Z,7.06
2022-12-14T13:37:32.403Z,7.05
2022-12-14T13:39:58.709Z,6.69
2022-12-14T13:42:25.025Z,6.50
2022-12-14T13:44:51.326Z,6.39
2022-12-14T13:47:17.599Z,6.50
2022-12-14T13:49:43.950Z,5.84
2022-12-14T13:52:10.229Z,5.57
2022-12-14T13:54:36.540Z,5.05
2022-12-14T13:57:02.874Z,5.14
2022-12-14T13:59:29.157Z,4.63
2022-12-14T14:01:55.521Z,4.50
2022-12-14T14:04:21.990Z,4.86
2022-12-14T14:06:48.414Z,4.89
2022-12-14T14:09:14.743Z,4.71
2022-12-14T14:11:41.031Z,4.78
2022-12-14T14:14:07.318Z,5.28
2022-12-14T14:16:33.835Z,6.17
2022-12-14T14:19:00.283Z,5.75
2022-12-14T14:21:26.611Z,6.16
2022-12-14T14:23:55.094Z,6.42
2022-12-14T14:26:21.445Z,6.18
2022-12-14T14:28:49.449Z,5.66
2022-12-14T14:31:15.937Z,5.65
2022-12-14T14:33:47.356Z,5.42
2022-12-14T14:36:14.252Z,5.40
2022-12-14T14:38:40.604Z,5.34
2022-12-14T14:41:16.525Z,6.11
2022-12-14T14:43:43.605Z,7.07
2022-12-14T14:46:22.200Z,7.48
2022-12-14T14:48:49.259Z,7.62
2022-12-14T14:51:15.571Z,7.62
2022-12-14T14:53:41.881Z,7.34
2022-12-14T14:56:08.216Z,7.10
2022-12-14T14:58:34.911Z,7.21
2022-12-14T15:01:01.587Z,6.99
2022-12-14T15:03:29.043Z,7.36
2022-12-14T15:05:55.417Z,7.23
2022-12-14T15:08:21.747Z,7.18
2022-12-14T15:10:48.103Z,8.46
2022-12-14T15:13:14.501Z,8.95
2022-12-14T15:15:40.891Z,9.24
2022-12-14T15:18:07.195Z,9.12
2022-12-14T15:20:33.544Z,8.88
2022-12-14T15:22:59.864Z,7.54
2022-12-14T15:25:26.279Z,7.60
2022-12-14T15:27:52.636Z,7.82
2022-12-14T15:30:18.991Z,7.59
2022-12-14T15:32:47.866Z,7.69
2022-12-14T15:35:14.423Z,6.85
2022-12-14T15:37:40.733Z,6.20
2022-12-14T15:40:07.026Z,4.89
2022-12-14T15:42:33.312Z,3.97
2022-12-14T15:44:59.792Z,3.35
2022-12-14T15:47:26.109Z,3.29
2022-12-14T15:49:59.245Z,2.93
2022-12-14T15:52:26.956Z,2.78
2022-12-14T15:54:53.259Z,2.53
2022-12-14T15:57:19.661Z,2.76
2022-12-14T15:59:46.033Z,3.71
2022-12-14T16:02:15.774Z,5.46
2022-12-14T16:04:42.156Z,6.75
2022-12-14T16:07:09.856Z,7.35
2022-12-14T16:09:36.364Z,6.68
2022-12-14T16:12:02.675Z,6.22
2022-12-14T16:14:28.996Z,6.63
2022-12-14T16:16:55.404Z,7.06
2022-12-14T16:19:27.924Z,7.50
2022-12-14T16:21:55.320Z,7.99
2022-12-14T16:24:21.621Z,9.36
2022-12-14T16:26:47.916Z,10.04
2022-12-14T16:29:14.239Z,8.68
2022-12-14T16:31:40.587Z,8.59
2022-12-14T16:34:06.922Z,7.82
2022-12-14T16:36:33.250Z,8.33
2022-12-14T16:38:59.549Z,8.07
2022-12-14T16:41:25.904Z,7.64
2022-12-14T16:43:52.305Z,9.62
2022-12-14T16:46:18.713Z,8.78
2022-12-14T16:48:45.053Z,8.91
2022-12-14T16:51:17.539Z,9.13
2022-12-14T16:53:44.872Z,9.94
2022-12-14T16:56:11.241Z,11.85
2022-12-14T16:58:37.552Z,11.56
2022-12-14T17:01:03.983Z,12.64
2022-12-14T17:03:30.918Z,13.50
2022-12-14T17:05:57.551Z,13.22
2022-12-14T17:08:23.870Z,14.02
2022-12-14T17:10:52.687Z,14.07
2022-12-14T17:13:19.023Z,14.44
2022-12-14T17:15:45.355Z,14.22
2022-12-14T17:18:15.693Z,13.86
2022-12-14T17:20:42.078Z,14.26
2022-12-14T17:23:08.428Z,14.06
2022-12-14T17:25:35.890Z,14.17
2022-12-14T17:28:02.205Z,13.13
2022-12-14T17:30:28.602Z,13.19
2022-12-14T17:32:55.037Z,13.27
2022-12-14T17:35:21.371Z,13.00
2022-12-14T17:37:47.663Z,12.99
2022-12-14T17:40:15.745Z,12.67
2022-12-14T17:42:42.081Z,11.29
2022-12-14T17:45:08.379Z,10.36
2022-12-14T17:47:37.375Z,9.90
2022-12-14T17:50:03.671Z,7.87
2022-12-14T17:52:29.997Z,7.59
2022-12-14T17:54:56.449Z,7.10
2022-12-14T17:57:22.767Z,7.95
2022-12-14T17:59:49.051Z,7.51
2022-12-14T18:02:15.522Z,7.87
2022-12-14T18:04:41.987Z,8.19
2022-12-14T18:07:08.281Z,7.11
2022-12-14T18:09:34.633Z,7.17
2022-12-14T18:12:22.584Z,6.39
2022-12-14T18:14:47.438Z,6.07
2022-12-14T18:17:13.957Z,6.30
2022-12-14T18:19:40.268Z,6.06
2022-12-14T18:22:06.578Z,5.88
2022-12-14T18:24:32.863Z,6.10
2022-12-14T18:26:59.152Z,5.70
2022-12-14T18:29:25.505Z,4.71
2022-12-14T18:31:51.868Z,3.64
2022-12-14T18:34:18.185Z,3.41
2022-12-14T18:36:44.485Z,3.95
2022-12-14T18:39:10.774Z,4.15
2022-12-14T18:41:37.059Z,4.24
2022-12-14T18:44:03.380Z,4.31
2022-12-14T18:46:29.737Z,4.71
2022-12-14T18:48:56.094Z,5.14
2022-12-14T18:51:22.435Z,4.75
2022-12-14T18:53:48.728Z,4.93
2022-12-14T18:56:15.028Z,5.04
2022-12-14T18:58:41.355Z,4.69
2022-12-14T19:01:07.755Z,5.13
2022-12-14T19:03:34.650Z,5.50
2022-12-14T19:06:26.836Z,5.54
2022-12-14T19:08:47.573Z,5.34
2022-12-14T19:11:15.872Z,5.46
2022-12-14T19:13:42.177Z,6.09
2022-12-14T19:16:08.553Z,6.79
2022-12-14T19:18:34.935Z,6.66
2022-12-14T19:21:01.225Z,6.58
2022-12-14T19:23:27.689Z,6.71
2022-12-14T19:25:54.205Z,5.81
2022-12-14T19:28:31.922Z,6.71
2022-12-14T19:30:59.110Z,7.20
2022-12-14T19:33:25.443Z,8.15
2022-12-14T19:35:51.745Z,8.45
2022-12-14T19:38:18.053Z,8.18
2022-12-14T19:40:44.358Z,8.44
2022-12-14T19:43:10.672Z,7.56
2022-12-14T19:45:37.015Z,6.76
2022-12-14T19:48:03.331Z,6.84
2022-12-14T19:50:29.640Z,6.41
2022-12-14T19:52:55.957Z,5.99
2022-12-14T19:55:22.250Z,5.25
2022-12-14T19:57:48.557Z,5.44
2022-12-14T20:00:14.859Z,5.18
2022-12-14T20:02:41.246Z,5.78
2022-12-14T20:05:07.609Z,5.89
2022-12-14T20:07:36.351Z,5.78
2022-12-14T20:10:06.530Z,5.70
2022-12-14T20:12:32.821Z,5.84
2022-12-14T20:14:59.119Z,5.90
2022-12-14T20:17:25.430Z,6.14
2022-12-14T20:19:51.757Z,6.53
2022-12-14T20:22:18.102Z,6.86
2022-12-14T20:24:44.386Z,6.52
2022-12-14T20:27:10.738Z,6.45
2022-12-14T20:29:37.046Z,6.05
2022-12-14T20:32:03.376Z,5.28
2022-12-14T20:34:29.738Z,4.84
2022-12-14T20:36:56.042Z,4.08
2022-12-14T20:39:22.328Z,3.89
2022-12-14T20:41:48.619Z,3.63
2022-12-14T20:44:17.400Z,3.83
2022-12-14T20:46:43.750Z,3.66
2022-12-14T20:49:10.075Z,3.36
2022-12-14T20:51:36.435Z,3.65
2022-12-14T20:54:02.732Z,3.49
2022-12-14T20:56:29.102Z,3.52
2022-12-14T20:58:55.441Z,3.04
2022-12-14T21:01:21.878Z,3.25
2022-12-14T21:03:48.453Z,3.77
2022-12-14T21:06:14.866Z,4.76
2022-12-14T21:08:41.192Z,4.96
2022-12-14T21:11:10.128Z,5.16
2022-12-14T21:13:36.579Z,5.09
2022-12-14T21:16:02.968Z,5.24
2022-12-14T21:18:30.615Z,5.64
2022-12-14T21:21:15.166Z,6.63
2022-12-14T21:23:41.525Z,6.82
2022-12-14T21:26:20.909Z,7.31
2022-12-14T21:28:57.588Z,6.59
2022-12-14T21:31:24.020Z,5.88
2022-12-14T21:33:56.127Z,5.29
2022-12-14T21:36:22.493Z,4.78
2022-12-14T21:38:49.105Z,4.68
2022-12-14T21:41:17.611Z,5.06
2022-12-14T21:43:45.606Z,4.91
2022-12-14T21:49:01.034Z,4.54
2022-12-14T21:57:02.573Z,4.37
2022-12-14T21:59:28.933Z,3.94
2022-12-14T22:02:03.640Z,3.52
2022-12-14T22:04:33.738Z,3.71
2022-12-14T22:07:08.683Z,3.88
2022-12-14T22:09:50.015Z,3.87
2022-12-14T22:12:17.911Z,4.17
2022-12-14T22:20:19.785Z,5.72
2022-12-14T22:22:49.379Z,5.80
2022-12-14T22:25:34.875Z,5.93
2022-12-14T22:28:01.558Z,6.33
2022-12-14T22:35:58.068Z,6.04
2022-12-14T22:38:24.893Z,5.08
2022-12-14T22:40:51.235Z,4.85
2022-12-14T22:43:17.659Z,5.06
2022-12-14T22:45:44.328Z,5.07
2022-12-14T22:48:13.544Z,5.66
2022-12-14T22:50:48.068Z,5.88
2022-12-14T22:56:01.593Z,6.39
2022-12-14T22:58:34.059Z,6.79
2022-12-14T23:03:51.427Z,7.78
2022-12-14T23:06:24.063Z,7.45
2022-12-14T23:08:50.446Z,7.15
2022-12-14T23:11:19.183Z,7.20
2022-12-14T23:13:52.866Z,7.09
2022-12-14T23:16:24.426Z,7.28
2022-12-14T23:18:53.638Z,6.69
2022-12-14T23:21:20.052Z,6.59
2022-12-14T23:23:55.627Z,6.54
2022-12-14T23:29:15.195Z,6.24
2022-12-14T23:31:41.552Z,6.72
2022-12-14T23:34:10.733Z,6.58
2022-12-14T23:36:44.211Z,6.81
2022-12-14T23:39:23.896Z,6.89
2022-12-14T23:41:58.220Z,6.78
2022-12-14T23:44:24.556Z,6.64
2022-12-14T23:46:51.424Z,6.72
2022-12-14T23:49:17.982Z,6.24
2022-12-14T23:51:46.614Z,5.83
2022-12-14T23:54:14.803Z,5.94
2022-12-14T23:56:41.164Z,5.92
2022-12-14T23:59:13.250Z,5.85
